createdAt,value
2022-10-16T00:01:53.918Z,10.33
2022-10-16T00:04:22.028Z,10.90
2022-10-16T00:06:49.979Z,10.87
2022-10-16T00:09:18.395Z,10.73
2022-10-16T00:11:47.900Z,10.80
2022-10-16T00:14:17.016Z,11.17
2022-10-16T00:16:48.334Z,10.67
2022-10-16T00:19:16.412Z,10.90
2022-10-16T00:21:44.336Z,11.47
2022-10-16T00:24:15.435Z,10.87
2022-10-16T00:26:49.368Z,10.77
2022-10-16T00:29:19.710Z,11.40
2022-10-16T00:31:50.867Z,10.50
2022-10-16T00:34:23.196Z,10.40
2022-10-16T00:36:57.008Z,10.57
2022-10-16T00:39:25.847Z,11.53
2022-10-16T00:41:53.896Z,11.47
2022-10-16T00:44:50.816Z,11.87
2022-10-16T00:47:23.553Z,11.77
2022-10-16T00:49:53.887Z,11.17
2022-10-16T00:52:22.191Z,11.50
2022-10-16T00:55:54.464Z,11.50
2022-10-16T01:06:15.662Z,10.87
2022-10-16T01:08:55.849Z,11.53
2022-10-16T01:11:30.199Z,11.17
2022-10-16T01:14:04.950Z,11.63
2022-10-16T01:16:41.165Z,10.53
2022-10-16T01:19:27.695Z,11.33
2022-10-16T01:22:46.451Z,11.20
2022-10-16T01:25:33.464Z,10.60
2022-10-16T01:28:20.530Z,9.80
2022-10-16T01:31:05.614Z,10.43
2022-10-16T01:40:02.691Z,10.77
2022-10-16T01:42:37.383Z,10.77
2022-10-16T01:45:12.356Z,10.30
2022-10-16T01:52:34.510Z,9.97
2022-10-16T01:55:50.899Z,9.77
2022-10-16T01:58:28.051Z,9.30
2022-10-16T02:01:36.742Z,10.23
2022-10-16T02:08:42.663Z,9.73
2022-10-16T02:12:09.019Z,9.93
2022-10-16T02:14:40.528Z,10.20
2022-10-16T02:17:19.046Z,10.83
2022-10-16T02:19:55.453Z,11.03
2022-10-16T02:22:33.999Z,10.67
2022-10-16T02:25:08.652Z,11.33
2022-10-16T02:27:43.044Z,10.93
2022-10-16T02:30:16.776Z,10.60
2022-10-16T02:32:47.148Z,11.20
2022-10-16T02:35:16.714Z,10.37
2022-10-16T02:37:48.478Z,10.13
2022-10-16T02:40:21.543Z,9.10
2022-10-16T02:42:55.045Z,9.80
2022-10-16T02:46:08.596Z,10.60
2022-10-16T02:49:02.776Z,10.43
2022-10-16T03:02:00.879Z,10.13
2022-10-16T03:05:32.310Z,9.73
2022-10-16T03:08:04.148Z,9.40
2022-10-16T03:10:33.489Z,9.93
2022-10-16T03:13:02.629Z,9.33
2022-10-16T03:16:12.460Z,9.00
2022-10-16T03:25:39.867Z,10.13
2022-10-16T03:29:34.132Z,10.50
2022-10-16T03:37:04.417Z,9.63
2022-10-16T03:40:14.841Z,10.77
2022-10-16T03:57:10.303Z,10.47
2022-10-16T04:00:05.567Z,10.73
2022-10-16T04:06:32.366Z,11.27
2022-10-16T04:09:05.933Z,11.60
2022-10-16T04:11:57.355Z,11.63
2022-10-16T04:14:32.790Z,10.53
2022-10-16T04:27:31.069Z,13.20
2022-10-16T04:30:28.007Z,13.27
2022-10-16T04:33:12.685Z,11.70
2022-10-16T04:36:19.299Z,11.87
2022-10-16T04:46:12.439Z,12.43
2022-10-16T04:48:43.057Z,11.67
2022-10-16T04:51:15.120Z,11.03
2022-10-16T04:53:50.643Z,12.40
2022-10-16T04:56:42.798Z,12.30
2022-10-16T04:59:22.613Z,13.00
2022-10-16T05:02:12.407Z,12.50
2022-10-16T05:05:57.443Z,12.67
2022-10-16T05:08:33.959Z,11.70
2022-10-16T05:11:30.014Z,11.20
2022-10-16T05:15:09.888Z,11.00
2022-10-16T05:23:16.749Z,11.17
2022-10-16T05:26:08.855Z,10.67
2022-10-16T05:29:10.094Z,10.53
2022-10-16T05:31:54.458Z,11.80
2022-10-16T05:35:07.570Z,11.40
2022-10-16T05:41:37.611Z,10.40
2022-10-16T05:44:29.034Z,12.00
2022-10-16T05:47:27.490Z,13.60
2022-10-16T05:49:57.086Z,14.40
2022-10-16T05:52:25.461Z,14.27
2022-10-16T05:54:53.341Z,14.53
2022-10-16T05:57:21.257Z,13.33
2022-10-16T05:59:49.210Z,13.93
2022-10-16T06:02:17.102Z,13.53
2022-10-16T06:04:45.272Z,12.77
2022-10-16T06:07:14.544Z,11.47
2022-10-16T06:09:42.437Z,10.17
2022-10-16T06:12:10.342Z,9.73
2022-10-16T06:14:38.273Z,9.10
2022-10-16T06:17:07.422Z,9.23
2022-10-16T06:19:35.485Z,9.20
2022-10-16T06:22:05.310Z,9.77
2022-10-16T06:24:34.524Z,10.13
2022-10-16T06:27:02.372Z,9.37
2022-10-16T06:29:30.199Z,9.40
2022-10-16T06:31:58.136Z,10.13
2022-10-16T06:34:26.094Z,9.53
2022-10-16T06:36:53.931Z,13.03
2022-10-16T06:39:21.996Z,11.97
2022-10-16T06:41:51.287Z,10.33
2022-10-16T06:44:19.163Z,9.67
2022-10-16T06:46:47.100Z,9.97
2022-10-16T06:49:16.917Z,9.73
2022-10-16T06:51:44.757Z,9.77
2022-10-16T06:54:12.605Z,9.47
2022-10-16T06:56:40.465Z,9.23
2022-10-16T06:59:09.676Z,10.20
2022-10-16T07:01:37.509Z,10.93
2022-10-16T07:04:05.406Z,10.38
2022-10-16T07:06:35.424Z,10.93
2022-10-16T07:09:08.082Z,10.75
2022-10-16T07:11:36.812Z,10.73
2022-10-16T07:14:05.089Z,9.93
2022-10-16T07:16:35.157Z,10.32
2022-10-16T07:19:04.799Z,10.90
2022-10-16T07:21:37.105Z,10.48
2022-10-16T07:24:07.226Z,9.95
2022-10-16T07:26:37.942Z,10.32
2022-10-16T07:29:05.960Z,10.15
2022-10-16T07:31:35.351Z,10.75
2022-10-16T07:34:03.213Z,10.73
2022-10-16T07:36:31.181Z,10.75
2022-10-16T07:39:00.001Z,9.55
2022-10-16T07:41:29.012Z,10.13
2022-10-16T07:44:01.046Z,10.40
2022-10-16T07:46:29.243Z,10.80
2022-10-16T07:48:58.542Z,12.65
2022-10-16T07:51:27.926Z,10.48
2022-10-16T07:53:56.068Z,9.98
2022-10-16T07:56:24.453Z,9.60
2022-10-16T07:58:52.913Z,9.38
2022-10-16T08:01:21.509Z,8.45
2022-10-16T08:03:51.572Z,8.25
2022-10-16T08:06:26.677Z,7.85
2022-10-16T08:08:56.744Z,8.05
2022-10-16T08:11:25.351Z,8.27
2022-10-16T08:13:53.282Z,8.77
2022-10-16T08:16:21.199Z,9.07
2022-10-16T08:18:49.409Z,8.63
2022-10-16T08:21:21.312Z,8.77
2022-10-16T08:23:55.056Z,8.80
2022-10-16T08:26:26.475Z,8.05
2022-10-16T08:28:54.798Z,8.30
2022-10-16T08:31:23.445Z,8.05
2022-10-16T08:33:52.245Z,7.43
2022-10-16T08:36:20.170Z,7.55
2022-10-16T08:38:52.920Z,6.70
2022-10-16T08:41:52.634Z,6.70
2022-10-16T08:44:35.255Z,6.40
2022-10-16T08:47:15.226Z,6.28
2022-10-16T08:49:45.202Z,6.05
2022-10-16T08:52:14.510Z,7.03
2022-10-16T08:54:48.400Z,5.63
2022-10-16T08:57:23.130Z,5.82
2022-10-16T08:59:53.354Z,5.47
2022-10-16T09:02:30.728Z,5.97
2022-10-16T09:05:23.943Z,5.50
2022-10-16T09:10:46.161Z,5.80
2022-10-16T09:13:23.334Z,4.63
2022-10-16T09:15:58.026Z,4.68
2022-10-16T09:18:32.935Z,4.72
2022-10-16T09:21:10.943Z,5.18
2022-10-16T09:23:39.776Z,4.32
2022-10-16T09:26:14.520Z,5.10
2022-10-16T09:28:42.633Z,4.03
2022-10-16T09:31:18.551Z,4.65
2022-10-16T09:33:50.404Z,4.80
2022-10-16T09:36:20.023Z,4.50
2022-10-16T09:38:47.976Z,5.05
2022-10-16T09:41:22.896Z,4.40
2022-10-16T09:43:55.080Z,4.45
2022-10-16T09:46:31.186Z,4.72
2022-10-16T09:49:00.918Z,4.82
2022-10-16T09:51:31.154Z,7.95
2022-10-16T09:54:01.624Z,4.82
2022-10-16T09:56:33.482Z,4.57
2022-10-16T09:59:03.672Z,4.70
2022-10-16T10:01:34.056Z,5.00
2022-10-16T10:04:04.767Z,4.55
2022-10-16T10:06:35.449Z,4.70
2022-10-16T10:09:16.117Z,4.28
2022-10-16T10:11:49.082Z,4.60
2022-10-16T10:14:26.348Z,4.75
2022-10-16T10:17:03.749Z,5.18
2022-10-16T10:19:33.009Z,5.13
2022-10-16T10:22:00.953Z,5.13
2022-10-16T10:24:28.858Z,6.95
2022-10-16T10:27:09.435Z,5.63
2022-10-16T10:29:51.730Z,7.97
2022-10-16T10:32:33.156Z,5.32
2022-10-16T10:35:15.168Z,5.15
2022-10-16T10:37:57.985Z,5.13
2022-10-16T10:40:36.473Z,4.72
2022-10-16T10:43:19.287Z,4.93
2022-10-16T10:45:49.760Z,6.03
2022-10-16T10:51:06.338Z,4.97
2022-10-16T10:53:45.200Z,4.70
2022-10-16T10:56:25.287Z,4.82
2022-10-16T10:59:27.312Z,4.75
2022-10-16T11:02:01.956Z,4.78
2022-10-16T11:04:42.590Z,4.93
2022-10-16T11:07:17.659Z,5.35
2022-10-16T11:09:50.225Z,4.70
2022-10-16T11:12:21.160Z,4.45
2022-10-16T11:14:55.879Z,4.55
2022-10-16T11:17:28.027Z,4.88
2022-10-16T11:20:00.725Z,4.82
2022-10-16T11:22:34.754Z,5.65
2022-10-16T11:25:13.645Z,5.57
2022-10-16T11:27:45.834Z,5.10
2022-10-16T11:30:20.758Z,7.13
2022-10-16T11:33:12.324Z,4.22
2022-10-16T11:35:46.413Z,4.90
2022-10-16T11:38:20.528Z,4.90
2022-10-16T11:40:52.359Z,5.20
2022-10-16T11:43:27.194Z,4.90
2022-10-16T11:45:59.924Z,4.20
2022-10-16T11:48:34.695Z,4.90
2022-10-16T11:51:11.532Z,4.20
2022-10-16T11:53:47.417Z,4.45
2022-10-16T11:56:17.720Z,4.93
2022-10-16T11:58:56.184Z,4.22
2022-10-16T12:01:32.436Z,4.70
2022-10-16T12:04:19.299Z,4.75
2022-10-16T12:06:52.138Z,4.63
2022-10-16T12:09:25.058Z,4.72
2022-10-16T12:11:53.027Z,4.97
2022-10-16T12:14:57.335Z,4.55
2022-10-16T12:17:29.012Z,4.93
2022-10-16T12:20:01.800Z,4.63
2022-10-16T12:22:32.092Z,4.00
2022-10-16T12:25:00.512Z,4.35
2022-10-16T12:27:31.808Z,4.65
2022-10-16T12:30:01.788Z,4.50
2022-10-16T12:32:46.215Z,4.82
2022-10-16T12:35:22.837Z,5.03
2022-10-16T12:37:51.978Z,4.50
2022-10-16T12:40:29.989Z,4.70
2022-10-16T12:42:57.935Z,3.60
2022-10-16T12:45:29.660Z,4.53
2022-10-16T12:48:01.216Z,6.55
2022-10-16T12:50:33.089Z,5.40
2022-10-16T12:53:01.828Z,5.07
2022-10-16T12:55:37.368Z,4.35
2022-10-16T12:58:24.397Z,4.05
2022-10-16T13:00:58.704Z,4.43
2022-10-16T13:03:51.302Z,19.52
2022-10-16T13:06:30.192Z,3.88
2022-10-16T13:09:33.591Z,5.57
2022-10-16T13:12:13.875Z,4.68
2022-10-16T13:15:21.737Z,4.32
2022-10-16T13:17:59.841Z,4.25
2022-10-16T13:20:35.716Z,9.15
2022-10-16T13:23:15.836Z,4.10
2022-10-16T13:25:58.999Z,5.70
2022-10-16T13:28:32.235Z,4.22
2022-10-16T13:31:02.396Z,3.67
2022-10-16T13:33:35.887Z,3.90
2022-10-16T13:36:06.973Z,3.80
2022-10-16T13:38:37.052Z,2.97
2022-10-16T13:41:07.138Z,3.35
2022-10-16T13:43:37.718Z,3.88
2022-10-16T13:46:07.539Z,3.60
2022-10-16T13:48:36.607Z,3.90
2022-10-16T13:51:12.972Z,3.72
2022-10-16T13:53:41.620Z,3.80
2022-10-16T13:56:15.181Z,4.60
2022-10-16T13:58:43.755Z,4.13
2022-10-16T14:01:19.650Z,5.10
2022-10-16T14:03:48.687Z,3.70
2022-10-16T14:06:23.165Z,4.00
2022-10-16T14:08:55.877Z,4.10
2022-10-16T14:11:25.306Z,8.43
2022-10-16T14:13:54.007Z,4.38
2022-10-16T14:16:24.227Z,3.13
2022-10-16T14:18:58.413Z,3.80
2022-10-16T14:21:28.161Z,3.83
2022-10-16T14:23:57.079Z,3.20
2022-10-16T14:26:27.657Z,3.30
2022-10-16T14:29:12.634Z,3.53
2022-10-16T14:31:41.693Z,3.97
2022-10-16T14:34:25.512Z,3.60
2022-10-16T14:36:54.852Z,3.90
2022-10-16T14:39:25.030Z,3.40
2022-10-16T14:41:54.631Z,3.93
2022-10-16T14:44:28.845Z,4.40
2022-10-16T14:46:56.940Z,3.83
2022-10-16T14:49:26.208Z,3.90
2022-10-16T14:51:56.018Z,4.60
2022-10-16T14:54:23.881Z,3.80
2022-10-16T14:56:53.823Z,4.00
2022-10-16T14:59:30.171Z,3.90
2022-10-16T15:01:58.290Z,4.03
2022-10-16T15:04:26.200Z,4.40
2022-10-16T15:06:56.728Z,6.97
2022-10-16T15:09:24.989Z,4.17
2022-10-16T15:11:52.852Z,4.30
2022-10-16T15:14:20.754Z,3.63
2022-10-16T15:16:48.651Z,4.80
2022-10-16T15:19:16.499Z,3.97
2022-10-16T15:21:44.642Z,4.30
2022-10-16T15:24:19.210Z,5.00
2022-10-16T15:26:50.307Z,4.27
2022-10-16T15:29:18.268Z,4.03
2022-10-16T15:31:48.486Z,4.47
2022-10-16T15:34:16.529Z,4.67
2022-10-16T15:36:44.443Z,5.53
2022-10-16T15:39:16.476Z,5.30
2022-10-16T15:41:45.007Z,4.50
2022-10-16T15:44:12.978Z,4.37
2022-10-16T15:46:40.845Z,4.60
2022-10-16T15:49:08.979Z,4.30
2022-10-16T15:51:40.534Z,4.60
2022-10-16T15:54:08.495Z,5.70
2022-10-16T15:56:38.284Z,4.80
2022-10-16T15:59:06.997Z,4.60
2022-10-16T16:01:35.691Z,4.70
2022-10-16T16:04:10.888Z,4.80
2022-10-16T16:06:48.475Z,4.60
2022-10-16T16:09:16.567Z,4.70
2022-10-16T16:11:45.798Z,4.47
2022-10-16T16:14:15.451Z,4.77
2022-10-16T16:16:43.775Z,5.20
2022-10-16T16:19:12.118Z,4.80
2022-10-16T16:21:40.205Z,4.87
2022-10-16T16:24:09.189Z,5.73
2022-10-16T16:26:40.663Z,6.10
2022-10-16T16:29:13.288Z,6.60
2022-10-16T16:31:42.066Z,6.77
2022-10-16T16:34:10.725Z,6.57
2022-10-16T16:36:39.850Z,6.33
2022-10-16T16:39:08.378Z,6.70
2022-10-16T16:41:36.264Z,7.00
2022-10-16T16:44:06.472Z,7.00
2022-10-16T16:46:36.400Z,6.00
2022-10-16T16:49:05.419Z,6.57
2022-10-16T16:51:36.929Z,7.60
2022-10-16T16:54:08.502Z,6.13
2022-10-16T16:56:37.551Z,6.87
2022-10-16T16:59:05.890Z,8.60
2022-10-16T17:01:35.180Z,8.50
2022-10-16T17:04:03.298Z,8.60
2022-10-16T17:06:34.224Z,8.87
2022-10-16T17:09:04.570Z,9.90
2022-10-16T17:11:32.823Z,11.27
2022-10-16T17:14:01.906Z,23.70
2022-10-16T17:16:34.419Z,20.33
2022-10-16T17:19:04.839Z,16.53
2022-10-16T17:21:33.198Z,16.40
2022-10-16T17:24:02.042Z,13.20
2022-10-16T17:26:30.857Z,11.10
2022-10-16T17:29:01.367Z,10.73
2022-10-16T17:31:31.228Z,11.23
2022-10-16T17:34:00.095Z,11.87
2022-10-16T17:36:31.028Z,11.73
2022-10-16T17:39:01.747Z,13.17
2022-10-16T17:41:29.615Z,14.30
2022-10-16T17:43:57.633Z,13.17
2022-10-16T17:46:26.209Z,13.00
2022-10-16T17:48:56.035Z,15.63
2022-10-16T17:51:25.737Z,16.90
2022-10-16T17:53:56.715Z,15.73
2022-10-16T17:56:25.607Z,14.10
2022-10-16T17:58:56.084Z,15.13
2022-10-16T18:01:26.017Z,16.80
2022-10-16T18:03:55.707Z,18.57
2022-10-16T18:06:23.876Z,22.07
2022-10-16T18:08:51.856Z,17.63
2022-10-16T18:11:21.758Z,15.60
2022-10-16T18:13:52.501Z,15.70
2022-10-16T18:16:20.721Z,15.10
2022-10-16T18:18:48.962Z,18.90
2022-10-16T18:21:20.486Z,22.00
2022-10-16T18:23:51.017Z,18.60
2022-10-16T18:26:22.636Z,15.03
2022-10-16T18:28:53.702Z,14.67
2022-10-16T18:31:23.003Z,20.73
2022-10-16T18:33:51.554Z,22.43
2022-10-16T18:36:21.808Z,26.10
2022-10-16T18:38:50.594Z,28.43
2022-10-16T18:41:19.449Z,28.10
2022-10-16T18:43:49.003Z,26.17
2022-10-16T18:46:19.196Z,26.30
2022-10-16T18:48:48.216Z,28.00
2022-10-16T18:51:19.247Z,27.50
2022-10-16T18:53:50.164Z,27.63
2022-10-16T18:56:20.429Z,33.40
2022-10-16T18:58:51.740Z,35.13
2022-10-16T19:01:22.438Z,37.17
2022-10-16T19:03:54.939Z,36.00
2022-10-16T19:06:23.061Z,30.53
2022-10-16T19:08:51.036Z,28.10
2022-10-16T19:11:20.939Z,26.67
2022-10-16T19:13:51.253Z,24.40
2022-10-16T19:16:21.610Z,25.40
2022-10-16T19:18:50.408Z,26.93
2022-10-16T19:21:18.964Z,18.77
2022-10-16T19:23:47.112Z,19.10
2022-10-16T19:26:17.157Z,21.30
2022-10-16T19:28:46.326Z,21.50
2022-10-16T19:31:17.689Z,20.47
2022-10-16T19:33:47.449Z,20.47
2022-10-16T19:36:18.073Z,18.43
2022-10-16T19:38:46.849Z,15.60
2022-10-16T19:41:16.148Z,16.37
2022-10-16T19:43:44.701Z,17.50
2022-10-16T19:46:14.200Z,17.73
2022-10-16T19:48:48.752Z,17.60
2022-10-16T19:51:19.543Z,19.07
2022-10-16T19:53:48.824Z,17.43
2022-10-16T19:56:19.239Z,17.43
2022-10-16T19:58:47.526Z,14.70
2022-10-16T20:01:16.968Z,12.77
2022-10-16T20:03:47.788Z,12.13
2022-10-16T20:06:17.452Z,13.90
2022-10-16T20:08:48.010Z,13.70
2022-10-16T20:11:18.911Z,15.13
2022-10-16T20:13:47.197Z,21.30
2022-10-16T20:16:17.893Z,24.23
2022-10-16T20:18:48.266Z,24.03
2022-10-16T20:21:17.841Z,25.40
2022-10-16T20:23:47.198Z,24.27
2022-10-16T20:26:15.595Z,26.80
2022-10-16T20:28:44.169Z,27.20
2022-10-16T20:31:22.583Z,28.47
2022-10-16T20:33:53.091Z,27.40
2022-10-16T20:36:22.916Z,28.87
2022-10-16T20:38:50.807Z,30.77
2022-10-16T20:41:19.910Z,29.50
2022-10-16T20:43:49.752Z,29.00
2022-10-16T20:46:21.835Z,29.23
2022-10-16T20:48:51.496Z,28.90
2022-10-16T20:51:21.448Z,26.57
2022-10-16T20:53:53.278Z,27.80
2022-10-16T20:56:21.655Z,29.00
2022-10-16T20:58:49.740Z,30.07
2022-10-16T21:01:19.405Z,28.90
2022-10-16T21:03:53.504Z,23.73
2022-10-16T21:06:21.604Z,30.27
2022-10-16T21:08:49.940Z,31.43
2022-10-16T21:11:20.103Z,31.97
2022-10-16T21:13:48.323Z,33.47
2022-10-16T21:16:17.228Z,32.77
2022-10-16T21:18:45.124Z,32.73
2022-10-16T21:21:21.192Z,37.07
2022-10-16T21:23:49.671Z,30.67
2022-10-16T21:26:18.354Z,27.90
2022-10-16T21:28:46.454Z,32.50
2022-10-16T21:31:15.959Z,36.07
2022-10-16T21:33:44.102Z,34.77
2022-10-16T21:36:18.794Z,31.80
2022-10-16T21:41:19.880Z,32.10
2022-10-16T21:43:48.037Z,32.60
2022-10-16T21:46:17.335Z,29.50
2022-10-16T21:48:45.291Z,32.37
2022-10-16T21:51:14.364Z,31.07
2022-10-16T21:53:43.592Z,34.03
2022-10-16T21:56:15.580Z,36.57
2022-10-16T21:58:44.029Z,36.13
2022-10-16T22:01:13.991Z,26.40
2022-10-16T22:03:42.204Z,34.17
2022-10-16T22:06:11.374Z,34.90
2022-10-16T22:08:40.450Z,34.00
2022-10-16T22:11:12.259Z,32.50
2022-10-16T22:13:41.004Z,30.40
2022-10-16T22:16:10.043Z,28.83
2022-10-16T22:18:39.225Z,27.30
2022-10-16T22:21:08.323Z,26.37
2022-10-16T22:23:36.615Z,22.90
2022-10-16T22:26:06.571Z,24.70
2022-10-16T22:28:36.314Z,19.97
2022-10-16T22:31:06.214Z,22.57
2022-10-16T22:36:09.159Z,21.40
2022-10-16T22:38:38.395Z,19.90
2022-10-16T22:41:09.403Z,18.77
2022-10-16T22:43:39.702Z,18.23
2022-10-16T22:46:10.178Z,19.67
2022-10-16T22:48:38.347Z,20.87
2022-10-16T22:51:07.759Z,19.20
2022-10-16T22:53:36.460Z,18.50
2022-10-16T22:56:05.121Z,20.40
2022-10-16T22:58:33.112Z,19.43
2022-10-16T23:01:02.852Z,19.20
2022-10-16T23:03:30.839Z,19.23
2022-10-16T23:05:58.684Z,20.00
2022-10-16T23:08:26.532Z,18.40
2022-10-16T23:10:54.400Z,19.70
2022-10-16T23:13:22.253Z,18.47
2022-10-16T23:15:50.115Z,18.73
2022-10-16T23:18:19.412Z,18.43
2022-10-16T23:20:47.261Z,18.83
2022-10-16T23:23:15.116Z,26.37
2022-10-16T23:25:47.508Z,18.70
2022-10-16T23:30:48.453Z,18.73
2022-10-16T23:33:16.326Z,19.23
2022-10-16T23:35:45.580Z,18.07
2022-10-16T23:38:13.476Z,17.83
2022-10-16T23:40:41.347Z,18.20
2022-10-16T23:43:09.194Z,18.30
2022-10-16T23:45:37.066Z,19.73
2022-10-16T23:48:05.028Z,18.37
2022-10-16T23:50:32.912Z,18.30
2022-10-16T23:53:06.572Z,17.03
2022-10-16T23:55:37.853Z,16.37
2022-10-16T23:58:05.747Z,17.87
